createdAt,value
2019-05-02T00:00:41.599Z,28.10
2019-05-02T00:01:41.727Z,28.80
2019-05-02T00:02:41.857Z,29.40
2019-05-02T00:03:42.931Z,27.90
2019-05-02T00:04:42.140Z,30.00
2019-05-02T00:05:42.283Z,28.90
2019-05-02T00:06:42.989Z,28.90
2019-05-02T00:07:42.574Z,29.30
2019-05-02T00:08:42.811Z,29.10
2019-05-02T00:09:48.480Z,29.10
2019-05-02T00:10:42.934Z,29.90
2019-05-02T00:11:43.099Z,30.30
2019-05-02T00:12:43.244Z,31.10
2019-05-02T00:13:43.365Z,30.20
2019-05-02T00:14:43.503Z,31.10
2019-05-02T00:15:43.631Z,31.60
2019-05-02T00:16:45.163Z,32.30
2019-05-02T00:17:43.893Z,30.50
2019-05-02T00:18:44.011Z,30.00
2019-05-02T00:19:45.035Z,29.80
2019-05-02T00:20:44.307Z,28.60
2019-05-02T00:21:44.463Z,28.20
2019-05-02T00:22:48.063Z,29.30
2019-05-02T00:23:44.734Z,29.30
2019-05-02T00:24:44.954Z,28.70
2019-05-02T00:25:47.182Z,30.10
2019-05-02T00:26:45.085Z,29.80
2019-05-02T00:27:45.248Z,30.10
2019-05-02T00:28:48.029Z,30.60
2019-05-02T00:29:45.496Z,30.50
2019-05-02T00:30:45.637Z,30.20
2019-05-02T00:31:46.948Z,30.60
2019-05-02T00:32:45.930Z,30.70
2019-05-02T00:33:46.060Z,29.90
2019-05-02T00:34:46.188Z,31.30
2019-05-02T00:35:47.587Z,31.10
2019-05-02T00:36:46.567Z,29.40
2019-05-02T00:37:46.575Z,30.00
2019-05-02T00:38:46.702Z,29.80
2019-05-02T00:39:49.289Z,30.90
2019-05-02T00:40:46.979Z,30.50
2019-05-02T00:41:47.106Z,29.80
2019-05-02T00:42:47.235Z,30.80
2019-05-02T00:43:47.386Z,30.30
2019-05-02T00:44:48.265Z,30.60
2019-05-02T00:45:47.674Z,31.00
2019-05-02T00:46:47.806Z,30.10
2019-05-02T00:47:49.756Z,29.90
2019-05-02T00:48:48.078Z,30.90
2019-05-02T00:49:48.216Z,30.40
2019-05-02T00:50:50.921Z,30.40
2019-05-02T00:51:48.502Z,30.80
2019-05-02T00:52:48.726Z,29.90
2019-05-02T00:53:49.537Z,31.00
2019-05-02T00:54:48.870Z,30.50
2019-05-02T00:55:49.012Z,29.40
2019-05-02T00:56:49.144Z,30.80
2019-05-02T00:57:50.937Z,30.90
2019-05-02T00:58:49.407Z,31.60
2019-05-02T00:59:49.564Z,31.10
2019-05-02T01:00:53.180Z,31.00
2019-05-02T01:01:49.816Z,31.60
2019-05-02T01:02:49.950Z,31.70
2019-05-02T01:03:52.073Z,31.70
2019-05-02T01:04:50.224Z,31.30
2019-05-02T01:05:50.345Z,31.70
2019-05-02T01:06:50.808Z,31.40
2019-05-02T01:07:50.630Z,32.00
2019-05-02T01:08:50.755Z,31.70
2019-05-02T01:09:50.888Z,32.50
2019-05-02T01:10:52.134Z,30.90
2019-05-02T01:11:51.158Z,30.90
2019-05-02T01:12:51.286Z,31.40
2019-05-02T01:13:55.659Z,31.10
2019-05-02T01:14:51.543Z,32.30
2019-05-02T01:15:51.680Z,32.40
2019-05-02T01:16:54.501Z,32.00
2019-05-02T01:17:51.986Z,31.50
2019-05-02T01:18:52.124Z,32.20
2019-05-02T01:19:52.711Z,31.60
2019-05-02T01:20:52.396Z,30.80
2019-05-02T01:21:52.535Z,29.80
2019-05-02T01:22:53.625Z,29.80
2019-05-02T01:23:52.806Z,29.40
2019-05-02T01:24:52.935Z,30.40
2019-05-02T01:25:54.551Z,29.70
2019-05-02T01:26:53.204Z,28.90
2019-05-02T01:27:53.349Z,30.60
2019-05-02T01:28:54.425Z,29.30
2019-05-02T01:29:53.605Z,31.20
2019-05-02T01:30:53.735Z,29.60
2019-05-02T01:31:54.798Z,30.40
2019-05-02T01:32:54.112Z,29.90
2019-05-02T01:33:54.119Z,29.10
2019-05-02T01:34:54.870Z,29.40
2019-05-02T01:35:54.402Z,30.60
2019-05-02T01:36:54.526Z,29.80
2019-05-02T01:37:55.002Z,30.50
2019-05-02T01:38:54.788Z,29.70
2019-05-02T01:39:54.945Z,30.50
2019-05-02T01:40:55.062Z,30.30
2019-05-02T01:41:55.192Z,30.30
2019-05-02T01:42:55.329Z,30.80
2019-05-02T01:44:00.091Z,30.90
2019-05-02T01:44:55.626Z,31.40
2019-05-02T01:45:55.756Z,31.20
2019-05-02T01:46:58.758Z,31.50
2019-05-02T01:47:56.032Z,32.60
2019-05-02T01:48:56.161Z,33.50
2019-05-02T01:49:57.143Z,33.60
2019-05-02T01:50:56.418Z,32.00
2019-05-02T01:51:56.544Z,32.00
2019-05-02T01:52:58.566Z,31.90
2019-05-02T01:53:56.802Z,31.00
2019-05-02T01:54:56.952Z,30.00
2019-05-02T01:55:59.085Z,30.30
2019-05-02T01:56:57.214Z,30.30
2019-05-02T01:57:57.336Z,29.40
2019-05-02T01:58:58.015Z,29.80
2019-05-02T01:59:57.673Z,28.10
2019-05-02T02:00:57.811Z,27.60
2019-05-02T02:01:59.078Z,27.30
2019-05-02T02:02:58.084Z,27.90
2019-05-02T02:03:58.318Z,28.00
2019-05-02T02:04:58.317Z,26.90
2019-05-02T02:05:58.451Z,28.60
2019-05-02T02:06:58.609Z,26.50
2019-05-02T02:07:58.748Z,26.70
2019-05-02T02:09:03.348Z,27.40
2019-05-02T02:09:59.013Z,26.70
2019-05-02T02:10:59.161Z,27.30
2019-05-02T02:11:59.288Z,28.50
2019-05-02T02:13:04.728Z,28.90
2019-05-02T02:13:59.566Z,29.50
2019-05-02T02:14:59.682Z,29.00
2019-05-02T02:16:04.049Z,29.00
2019-05-02T02:16:59.933Z,29.80
2019-05-02T02:18:00.069Z,29.90
2019-05-02T02:19:04.103Z,29.70
2019-05-02T02:20:00.324Z,29.10
2019-05-02T02:21:00.452Z,29.10
2019-05-02T02:22:02.787Z,29.10
2019-05-02T02:23:00.733Z,29.80
2019-05-02T02:24:00.855Z,29.60
2019-05-02T02:25:02.833Z,29.80
2019-05-02T02:26:01.133Z,30.00
2019-05-02T02:27:01.260Z,30.10
2019-05-02T02:28:01.394Z,31.00
2019-05-02T02:29:03.007Z,30.30
2019-05-02T02:30:01.753Z,30.00
2019-05-02T02:31:05.046Z,30.30
2019-05-02T02:32:01.929Z,29.50
2019-05-02T02:33:07.578Z,30.20
2019-05-02T02:34:02.204Z,30.40
2019-05-02T02:35:03.562Z,31.20
2019-05-02T02:36:02.417Z,30.00
2019-05-02T02:37:05.570Z,29.20
2019-05-02T02:38:02.682Z,30.60
2019-05-02T02:39:06.868Z,30.60
2019-05-02T02:40:02.940Z,29.30
2019-05-02T02:41:06.555Z,29.70
2019-05-02T02:42:03.220Z,29.80
2019-05-02T02:43:12.698Z,29.20
2019-05-02T02:44:03.472Z,29.40
2019-05-02T02:45:03.605Z,29.80
2019-05-02T02:46:03.852Z,29.40
2019-05-02T02:47:03.926Z,28.50
2019-05-02T02:48:04.050Z,28.30
2019-05-02T02:49:04.186Z,27.90
2019-05-02T02:50:05.399Z,27.40
2019-05-02T02:51:04.566Z,28.00
2019-05-02T02:52:06.664Z,27.40
2019-05-02T02:53:04.698Z,28.50
2019-05-02T02:54:05.751Z,29.60
2019-05-02T02:55:05.005Z,30.40
2019-05-02T02:56:05.142Z,30.00
2019-05-02T02:57:05.265Z,29.20
2019-05-02T02:58:06.524Z,28.60
2019-05-02T02:59:05.644Z,30.10
2019-05-02T03:00:08.208Z,29.70
2019-05-02T03:01:05.795Z,29.60
2019-05-02T03:02:10.403Z,29.90
2019-05-02T03:03:06.065Z,29.10
2019-05-02T03:04:09.227Z,28.80
2019-05-02T03:05:06.320Z,28.50
2019-05-02T03:06:08.120Z,27.60
2019-05-02T03:07:06.619Z,27.70
2019-05-02T03:08:07.291Z,26.80
2019-05-02T03:09:06.874Z,27.30
2019-05-02T03:10:08.449Z,27.80
2019-05-02T03:11:07.150Z,28.50
2019-05-02T03:12:07.281Z,28.40
2019-05-02T03:13:07.416Z,28.80
2019-05-02T03:14:09.652Z,27.60
2019-05-02T03:15:07.686Z,27.70
2019-05-02T03:16:09.314Z,28.40
2019-05-02T03:17:07.950Z,28.00
2019-05-02T03:18:08.076Z,27.70
2019-05-02T03:19:08.202Z,27.20
2019-05-02T03:20:08.341Z,27.20
2019-05-02T03:21:13.360Z,27.60
2019-05-02T03:22:08.609Z,28.00
2019-05-02T03:23:15.140Z,27.40
2019-05-02T03:24:08.907Z,29.30
2019-05-02T03:25:09.034Z,30.00
2019-05-02T03:26:14.807Z,30.80
2019-05-02T03:27:09.301Z,30.80
2019-05-02T03:28:17.831Z,30.30
2019-05-02T03:29:09.562Z,30.70
2019-05-02T03:30:09.780Z,29.10
2019-05-02T03:31:22.934Z,29.00
2019-05-02T03:32:22.170Z,28.90
2019-05-02T03:33:11.832Z,33.00
2019-05-02T03:34:10.245Z,32.40
2019-05-02T03:35:10.404Z,32.80
2019-05-02T03:36:25.906Z,31.20
2019-05-02T03:37:13.756Z,32.20
2019-05-02T03:38:10.784Z,30.30
2019-05-02T03:39:14.990Z,31.10
2019-05-02T03:40:11.061Z,34.60
2019-05-02T03:41:13.114Z,33.50
2019-05-02T03:42:11.359Z,35.00
2019-05-02T03:43:11.477Z,35.90
2019-05-02T03:44:18.224Z,37.10
2019-05-02T03:45:11.748Z,38.40
2019-05-02T03:46:13.688Z,39.20
2019-05-02T03:47:12.015Z,39.60
2019-05-02T03:48:18.211Z,38.90
2019-05-02T03:49:12.280Z,39.20
2019-05-02T03:50:12.428Z,39.50
2019-05-02T03:51:21.916Z,38.20
2019-05-02T03:52:12.658Z,37.70
2019-05-02T03:53:17.504Z,37.40
2019-05-02T03:54:12.944Z,40.00
2019-05-02T03:55:13.089Z,40.90
2019-05-02T03:56:14.116Z,39.80
2019-05-02T03:57:13.342Z,38.80
2019-05-02T03:58:16.155Z,35.30
2019-05-02T03:59:13.626Z,37.20
2019-05-02T04:00:20.853Z,36.40
2019-05-02T04:01:13.885Z,38.50
2019-05-02T04:02:20.211Z,37.00
2019-05-02T04:03:14.158Z,39.00
2019-05-02T04:04:20.479Z,39.30
2019-05-02T04:05:14.411Z,35.30
2019-05-02T04:06:21.015Z,37.20
2019-05-02T04:07:14.702Z,38.20
2019-05-02T04:08:20.638Z,37.00
2019-05-02T04:09:14.956Z,37.70
2019-05-02T04:10:19.743Z,35.90
2019-05-02T04:11:15.229Z,36.20
2019-05-02T04:12:21.420Z,38.50
2019-05-02T04:13:15.502Z,37.90
2019-05-02T04:14:23.404Z,37.70
2019-05-02T04:15:15.885Z,38.00
2019-05-02T04:16:17.491Z,38.20
2019-05-02T04:17:16.011Z,38.50
2019-05-02T04:18:17.950Z,37.60
2019-05-02T04:19:16.291Z,37.40
2019-05-02T04:20:16.429Z,37.60
2019-05-02T04:21:16.749Z,37.80
2019-05-02T04:22:16.693Z,38.80
2019-05-02T04:23:21.256Z,37.60
2019-05-02T04:24:16.934Z,38.40
2019-05-02T04:25:17.064Z,36.80
2019-05-02T04:26:17.209Z,36.60
2019-05-02T04:27:17.339Z,36.60
2019-05-02T04:28:17.467Z,34.60
2019-05-02T04:29:17.613Z,36.40
2019-05-02T04:30:17.742Z,37.40
2019-05-02T04:31:17.872Z,35.40
2019-05-02T04:32:18.006Z,36.70
2019-05-02T04:33:18.149Z,36.90
2019-05-02T04:34:18.362Z,37.30
2019-05-02T04:35:18.374Z,36.90
2019-05-02T04:36:18.505Z,36.90
2019-05-02T04:37:18.644Z,37.80
2019-05-02T04:38:21.312Z,38.20
2019-05-02T04:39:21.599Z,39.00
2019-05-02T04:40:19.030Z,38.30
2019-05-02T04:41:28.494Z,38.50
2019-05-02T04:42:22.875Z,38.50
2019-05-02T04:43:19.468Z,37.00
2019-05-02T04:44:19.603Z,39.70
2019-05-02T04:45:26.527Z,39.60
2019-05-02T04:46:27.082Z,40.40
2019-05-02T04:47:21.910Z,41.30
2019-05-02T04:48:20.122Z,38.60
2019-05-02T04:49:29.721Z,40.40
2019-05-02T04:50:24.959Z,41.00
2019-05-02T04:51:20.878Z,39.40
2019-05-02T04:52:21.344Z,40.70
2019-05-02T04:53:25.918Z,40.00
2019-05-02T04:54:26.270Z,39.90
2019-05-02T04:55:28.691Z,41.30
2019-05-02T04:56:21.184Z,42.20
2019-05-02T04:57:27.209Z,41.60
2019-05-02T04:58:27.692Z,39.30
2019-05-02T04:59:22.879Z,42.40
2019-05-02T05:00:21.723Z,43.10
2019-05-02T05:01:21.877Z,42.20
2019-05-02T05:02:34.101Z,39.40
2019-05-02T05:03:22.137Z,41.20
2019-05-02T05:04:22.275Z,41.50
2019-05-02T05:05:25.788Z,40.90
2019-05-02T05:06:22.524Z,39.50
2019-05-02T05:07:22.704Z,40.70
2019-05-02T05:08:26.622Z,41.00
2019-05-02T05:09:22.908Z,40.40
2019-05-02T05:10:23.022Z,41.30
2019-05-02T05:11:24.996Z,41.90
2019-05-02T05:12:23.299Z,41.60
2019-05-02T05:13:26.223Z,42.00
2019-05-02T05:14:23.561Z,42.20
2019-05-02T05:15:37.194Z,41.50
2019-05-02T05:16:23.866Z,42.30
2019-05-02T05:17:25.047Z,41.30
2019-05-02T05:18:24.127Z,40.50
2019-05-02T05:19:30.928Z,41.20
2019-05-02T05:20:24.413Z,41.60
2019-05-02T05:21:25.001Z,40.80
2019-05-02T05:22:24.681Z,40.60
2019-05-02T05:23:24.807Z,39.90
2019-05-02T05:24:25.100Z,38.10
2019-05-02T05:25:25.086Z,41.10
2019-05-02T05:26:25.795Z,39.50
2019-05-02T05:27:27.387Z,40.70
2019-05-02T05:28:27.262Z,41.20
2019-05-02T05:29:26.969Z,39.10
2019-05-02T05:30:27.706Z,41.00
2019-05-02T05:31:28.609Z,39.90
2019-05-02T05:32:28.060Z,41.30
2019-05-02T05:33:27.940Z,41.30
2019-05-02T05:34:28.573Z,40.60
2019-05-02T05:35:28.126Z,40.90
2019-05-02T05:36:32.470Z,40.00
2019-05-02T05:37:27.322Z,40.50
2019-05-02T05:38:28.516Z,40.40
2019-05-02T05:39:28.250Z,40.40
2019-05-02T05:40:30.298Z,41.10
2019-05-02T05:41:27.923Z,42.60
2019-05-02T05:42:32.973Z,42.00
2019-05-02T05:43:27.650Z,41.30
2019-05-02T05:44:31.137Z,41.90
2019-05-02T05:45:27.921Z,42.00
2019-05-02T05:46:28.188Z,40.70
2019-05-02T05:47:27.998Z,41.90
2019-05-02T05:48:32.038Z,41.60
2019-05-02T05:49:28.408Z,39.90
2019-05-02T05:50:32.079Z,39.30
2019-05-02T05:51:28.523Z,41.60
2019-05-02T05:52:33.217Z,41.20
2019-05-02T05:53:28.786Z,39.90
2019-05-02T05:54:33.169Z,40.20
2019-05-02T05:55:31.568Z,40.30
2019-05-02T05:56:32.501Z,41.70
2019-05-02T05:57:29.318Z,40.00
2019-05-02T05:58:29.473Z,37.90
2019-05-02T05:59:32.082Z,39.60
2019-05-02T06:00:29.728Z,41.50
2019-05-02T06:01:34.006Z,40.50
2019-05-02T06:02:29.992Z,39.40
2019-05-02T06:03:33.946Z,40.10
2019-05-02T06:04:33.109Z,41.70
2019-05-02T06:05:33.256Z,41.60
2019-05-02T06:06:30.513Z,41.60
2019-05-02T06:07:33.599Z,43.90
2019-05-02T06:08:30.756Z,41.80
2019-05-02T06:09:31.325Z,42.60
2019-05-02T06:10:31.088Z,43.60
2019-05-02T06:11:31.214Z,43.60
2019-05-02T06:12:35.289Z,45.70
2019-05-02T06:13:31.479Z,43.60
2019-05-02T06:14:34.221Z,43.60
2019-05-02T06:15:33.858Z,44.30
2019-05-02T06:16:31.867Z,44.90
2019-05-02T06:17:32.024Z,48.30
2019-05-02T06:18:36.325Z,47.20
2019-05-02T06:19:32.296Z,47.20
2019-05-02T06:20:32.429Z,48.70
2019-05-02T06:21:32.589Z,46.80
2019-05-02T06:22:32.709Z,47.10
2019-05-02T06:23:36.271Z,47.20
2019-05-02T06:24:34.000Z,46.00
2019-05-02T06:25:36.416Z,45.40
2019-05-02T06:26:33.265Z,43.10
2019-05-02T06:27:33.385Z,43.70
2019-05-02T06:28:36.199Z,43.20
2019-05-02T06:29:33.686Z,42.60
2019-05-02T06:30:33.802Z,43.30
2019-05-02T06:31:38.263Z,41.30
2019-05-02T06:32:34.070Z,44.50
2019-05-02T06:33:34.191Z,43.40
2019-05-02T06:34:38.797Z,43.80
2019-05-02T06:35:34.448Z,42.80
2019-05-02T06:36:36.882Z,43.80
2019-05-02T06:37:34.726Z,44.50
2019-05-02T06:38:34.859Z,44.70
2019-05-02T06:39:34.988Z,43.60
2019-05-02T06:40:39.335Z,44.50
2019-05-02T06:41:35.271Z,43.10
2019-05-02T06:42:37.839Z,44.90
2019-05-02T06:43:35.529Z,42.80
2019-05-02T06:44:35.686Z,43.70
2019-05-02T06:45:37.618Z,44.30
2019-05-02T06:46:35.929Z,45.30
2019-05-02T06:47:41.355Z,45.90
2019-05-02T06:48:36.231Z,45.40
2019-05-02T06:49:36.338Z,46.50
2019-05-02T06:50:38.764Z,45.80
2019-05-02T06:51:36.597Z,45.00
2019-05-02T06:52:36.850Z,46.30
2019-05-02T06:53:41.274Z,45.90
2019-05-02T06:54:36.998Z,47.30
2019-05-02T06:55:38.778Z,47.20
2019-05-02T06:56:37.271Z,47.40
2019-05-02T06:57:37.404Z,47.30
2019-05-02T06:58:42.075Z,46.40
2019-05-02T06:59:37.683Z,55.80
2019-05-02T07:00:49.938Z,48.90
2019-05-02T07:01:37.934Z,46.20
2019-05-02T07:02:38.062Z,45.70
2019-05-02T07:03:41.371Z,46.70
2019-05-02T07:04:38.332Z,45.00
2019-05-02T07:05:38.465Z,44.00
2019-05-02T07:06:55.991Z,44.20
2019-05-02T07:07:38.723Z,45.70
2019-05-02T07:08:38.873Z,43.30
2019-05-02T07:09:41.210Z,45.20
2019-05-02T07:10:44.741Z,44.60
2019-05-02T07:11:40.935Z,45.00
2019-05-02T07:12:39.402Z,44.70
2019-05-02T07:13:42.183Z,45.50
2019-05-02T07:14:39.687Z,44.10
2019-05-02T07:15:40.576Z,45.30
2019-05-02T07:16:39.945Z,44.20
2019-05-02T07:17:40.077Z,44.10
2019-05-02T07:18:41.980Z,46.30
2019-05-02T07:19:40.344Z,43.60
2019-05-02T07:20:42.390Z,46.10
2019-05-02T07:21:40.615Z,46.50
2019-05-02T07:22:40.969Z,44.50
2019-05-02T07:23:40.883Z,45.50
2019-05-02T07:24:41.010Z,47.40
2019-05-02T07:25:43.867Z,45.60
2019-05-02T07:26:41.296Z,47.50
2019-05-02T07:27:41.424Z,47.50
2019-05-02T07:28:45.768Z,46.80
2019-05-02T07:29:41.709Z,47.10
2019-05-02T07:30:41.864Z,48.80
2019-05-02T07:31:43.059Z,48.10
2019-05-02T07:32:42.114Z,47.50
2019-05-02T07:33:42.303Z,49.30
2019-05-02T07:34:44.231Z,48.40
2019-05-02T07:35:42.544Z,48.20
2019-05-02T07:36:42.688Z,51.20
2019-05-02T07:37:44.140Z,49.80
2019-05-02T07:38:42.945Z,49.50
2019-05-02T07:39:43.117Z,49.60
2019-05-02T07:40:43.248Z,49.60
2019-05-02T07:41:43.383Z,50.50
2019-05-02T07:42:43.501Z,50.50
2019-05-02T07:43:43.651Z,50.10
2019-05-02T07:44:43.786Z,50.90
2019-05-02T07:45:45.232Z,50.40
2019-05-02T07:46:51.724Z,51.90
2019-05-02T07:47:44.207Z,51.60
2019-05-02T07:48:48.889Z,54.50
2019-05-02T07:49:44.438Z,53.90
2019-05-02T07:50:46.419Z,54.70
2019-05-02T07:51:44.728Z,57.00
2019-05-02T07:52:44.860Z,59.50
2019-05-02T07:53:48.570Z,57.90
2019-05-02T07:54:45.137Z,60.10
2019-05-02T07:55:45.267Z,58.90
2019-05-02T07:56:48.610Z,59.60
2019-05-02T07:57:45.531Z,61.20
2019-05-02T07:58:47.957Z,61.40
2019-05-02T07:59:45.801Z,62.70
2019-05-02T08:00:45.944Z,64.60
2019-05-02T08:01:49.684Z,64.00
2019-05-02T08:02:46.210Z,62.60
2019-05-02T08:03:46.340Z,65.30
2019-05-02T08:04:46.474Z,62.70
2019-05-02T08:05:46.626Z,63.30
2019-05-02T08:06:46.811Z,64.10
2019-05-02T08:07:46.943Z,62.60
2019-05-02T08:08:47.065Z,63.30
2019-05-02T08:09:47.207Z,63.10
2019-05-02T08:10:47.338Z,64.30
2019-05-02T08:11:47.463Z,62.90
2019-05-02T08:12:47.650Z,63.40
2019-05-02T08:13:49.455Z,63.10
2019-05-02T08:14:47.888Z,63.90
2019-05-02T08:15:50.815Z,62.10
2019-05-02T08:16:48.143Z,62.70
2019-05-02T08:17:53.158Z,63.60
2019-05-02T08:18:48.425Z,63.00
2019-05-02T08:19:48.553Z,62.80
2019-05-02T08:20:51.009Z,63.10
2019-05-02T08:21:48.936Z,62.50
2019-05-02T08:22:50.375Z,61.90
2019-05-02T08:23:49.089Z,61.00
2019-05-02T08:24:49.214Z,62.00
2019-05-02T08:25:49.346Z,62.40
2019-05-02T08:26:53.511Z,61.20
2019-05-02T08:27:49.624Z,60.70
2019-05-02T08:28:51.850Z,61.30
2019-05-02T08:29:49.878Z,62.20
2019-05-02T08:30:49.993Z,62.30
2019-05-02T08:31:50.124Z,62.10
2019-05-02T08:32:50.252Z,61.20
2019-05-02T08:33:50.378Z,61.40
2019-05-02T08:34:51.884Z,62.30
2019-05-02T08:35:50.657Z,61.60
2019-05-02T08:36:50.778Z,61.40
2019-05-02T08:37:50.918Z,60.20
2019-05-02T08:38:53.527Z,60.30
2019-05-02T08:39:51.174Z,62.50
2019-05-02T08:40:51.302Z,61.20
2019-05-02T08:41:56.230Z,61.00
2019-05-02T08:42:51.571Z,60.70
2019-05-02T08:43:51.698Z,60.90
2019-05-02T08:44:56.245Z,59.30
2019-05-02T08:45:51.959Z,62.40
2019-05-02T08:46:53.320Z,60.10
2019-05-02T08:47:52.234Z,60.80
2019-05-02T08:48:52.363Z,60.70
2019-05-02T08:49:54.656Z,58.70
2019-05-02T08:50:52.633Z,61.60
2019-05-02T08:51:52.750Z,60.00
2019-05-02T08:52:52.895Z,58.60
2019-05-02T08:53:56.878Z,59.50
2019-05-02T08:54:53.169Z,58.90
2019-05-02T08:55:53.286Z,55.00
2019-05-02T08:56:58.250Z,55.50
2019-05-02T08:57:53.559Z,55.80
2019-05-02T08:58:53.708Z,52.40
2019-05-02T08:59:55.409Z,55.40
2019-05-02T09:00:53.960Z,54.90
2019-05-02T09:01:54.103Z,54.10
2019-05-02T09:02:56.980Z,53.40
2019-05-02T09:03:56.582Z,55.20
2019-05-02T09:04:58.812Z,54.90
2019-05-02T09:06:05.345Z,52.30
2019-05-02T09:06:58.918Z,53.20
2019-05-02T09:07:54.900Z,51.10
2019-05-02T09:08:55.033Z,50.80
2019-05-02T09:09:55.579Z,50.40
2019-05-02T09:10:55.319Z,50.20
2019-05-02T09:12:07.104Z,50.60
2019-05-02T09:12:55.577Z,51.80
2019-05-02T09:13:55.705Z,49.90
2019-05-02T09:14:55.845Z,48.00
2019-05-02T09:15:56.007Z,49.00
2019-05-02T09:17:00.143Z,49.30
2019-05-02T09:17:56.644Z,48.90
2019-05-02T09:18:56.369Z,47.20
2019-05-02T09:20:02.222Z,47.80
2019-05-02T09:20:56.918Z,48.10
2019-05-02T09:21:56.785Z,47.00
2019-05-02T09:22:56.910Z,45.60
2019-05-02T09:23:57.042Z,45.60
2019-05-02T09:24:57.166Z,45.90
2019-05-02T09:25:57.299Z,44.90
2019-05-02T09:26:57.437Z,45.10
2019-05-02T09:27:57.560Z,45.90
2019-05-02T09:29:01.678Z,45.40
2019-05-02T09:29:57.831Z,47.20
2019-05-02T09:31:05.078Z,47.00
2019-05-02T09:31:58.086Z,44.70
2019-05-02T09:33:04.897Z,44.40
2019-05-02T09:33:58.353Z,46.30
2019-05-02T09:35:04.264Z,44.00
2019-05-02T09:35:58.612Z,43.70
2019-05-02T09:36:58.749Z,43.60
2019-05-02T09:37:58.878Z,44.40
2019-05-02T09:38:59.010Z,44.70
2019-05-02T09:39:59.150Z,46.60
2019-05-02T09:40:59.275Z,47.90
2019-05-02T09:41:59.409Z,47.10
2019-05-02T09:43:02.089Z,45.10
2019-05-02T09:43:59.668Z,45.90
2019-05-02T09:44:59.804Z,46.00
2019-05-02T09:45:59.935Z,45.60
2019-05-02T09:47:00.066Z,43.30
2019-05-02T09:48:05.095Z,44.00
2019-05-02T09:49:02.462Z,42.40
2019-05-02T09:50:02.247Z,43.80
2019-05-02T09:51:04.615Z,43.80
2019-05-02T09:52:02.763Z,42.40
2019-05-02T09:53:01.968Z,43.10
2019-05-02T09:54:02.587Z,43.00
2019-05-02T09:55:02.850Z,40.50
2019-05-02T09:56:02.166Z,40.40
2019-05-02T09:57:02.792Z,40.10
2019-05-02T09:58:02.630Z,39.00
2019-05-02T09:59:10.268Z,38.40
2019-05-02T10:00:02.188Z,39.10
2019-05-02T10:01:02.121Z,38.20
2019-05-02T10:02:02.063Z,38.40
2019-05-02T10:03:02.686Z,39.60
2019-05-02T10:04:02.434Z,39.30
2019-05-02T10:05:02.424Z,38.80
2019-05-02T10:06:03.248Z,37.60
2019-05-02T10:07:02.681Z,37.60
2019-05-02T10:08:06.722Z,36.30
2019-05-02T10:09:02.953Z,34.10
2019-05-02T10:10:06.513Z,31.30
2019-05-02T10:11:03.231Z,30.50
2019-05-02T10:12:03.382Z,28.20
2019-05-02T10:13:03.505Z,28.60
2019-05-02T10:14:03.628Z,27.70
2019-05-02T10:15:03.775Z,29.50
2019-05-02T10:16:03.897Z,32.80
2019-05-02T10:17:07.086Z,33.80
2019-05-02T10:18:10.519Z,34.20
2019-05-02T10:19:09.628Z,32.00
2019-05-02T10:20:04.436Z,30.30
2019-05-02T10:21:07.884Z,31.30
2019-05-02T10:22:04.717Z,32.80
2019-05-02T10:23:04.851Z,30.90
2019-05-02T10:24:04.984Z,30.80
2019-05-02T10:25:05.112Z,31.00
2019-05-02T10:26:05.247Z,32.50
2019-05-02T10:27:08.561Z,32.10
2019-05-02T10:28:05.517Z,32.10
2019-05-02T10:29:05.651Z,31.00
2019-05-02T10:30:11.786Z,29.50
2019-05-02T10:31:05.907Z,27.90
2019-05-02T10:32:10.688Z,27.60
2019-05-02T10:33:06.183Z,27.80
2019-05-02T10:34:08.509Z,27.00
2019-05-02T10:35:06.441Z,29.00
2019-05-02T10:36:06.578Z,31.20
2019-05-02T10:37:06.809Z,30.70
2019-05-02T10:38:09.445Z,31.00
2019-05-02T10:39:06.971Z,31.60
2019-05-02T10:40:07.867Z,31.20
2019-05-02T10:41:07.263Z,31.80
2019-05-02T10:42:07.379Z,33.90
2019-05-02T10:43:07.524Z,32.60
2019-05-02T10:44:07.657Z,33.30
2019-05-02T10:45:12.311Z,32.70
2019-05-02T10:46:07.922Z,31.90
2019-05-02T10:47:08.059Z,30.30
2019-05-02T10:48:21.923Z,30.90
2019-05-02T10:49:08.340Z,28.80
2019-05-02T10:50:08.464Z,26.50
2019-05-02T10:51:08.591Z,25.70
2019-05-02T10:52:08.738Z,25.10
2019-05-02T10:53:14.298Z,25.20
2019-05-02T10:54:08.999Z,24.40
2019-05-02T10:55:09.133Z,24.20
2019-05-02T10:56:09.272Z,24.90
2019-05-02T10:57:09.406Z,24.80
2019-05-02T10:58:09.531Z,26.40
2019-05-02T10:59:11.649Z,27.30
2019-05-02T11:00:11.970Z,26.70
2019-05-02T11:01:09.950Z,25.60
2019-05-02T11:02:10.079Z,25.50
2019-05-02T11:03:11.943Z,26.60
2019-05-02T11:04:10.360Z,27.80
2019-05-02T11:05:11.970Z,28.40
2019-05-02T11:06:12.482Z,30.40
2019-05-02T11:07:11.944Z,28.50
2019-05-02T11:08:12.035Z,26.30
2019-05-02T11:09:12.075Z,26.50
2019-05-02T11:10:12.280Z,26.80
2019-05-02T11:11:12.654Z,28.00
2019-05-02T11:12:11.819Z,29.20
2019-05-02T11:13:12.484Z,31.20
2019-05-02T11:14:12.082Z,29.70
2019-05-02T11:15:12.706Z,28.10
2019-05-02T11:16:12.532Z,23.00
2019-05-02T11:17:13.823Z,22.00
2019-05-02T11:18:12.636Z,20.40
2019-05-02T11:19:13.040Z,19.00
2019-05-02T11:20:12.513Z,15.90
2019-05-02T11:21:12.654Z,17.00
2019-05-02T11:22:12.787Z,17.60
2019-05-02T11:23:12.925Z,17.30
2019-05-02T11:24:14.303Z,18.20
2019-05-02T11:25:13.180Z,18.10
2019-05-02T11:26:14.530Z,19.80
2019-05-02T11:27:13.463Z,18.50
2019-05-02T11:28:13.594Z,19.50
2019-05-02T11:29:13.735Z,18.30
2019-05-02T11:30:16.821Z,18.40
2019-05-02T11:31:14.002Z,18.70
2019-05-02T11:32:14.130Z,21.20
2019-05-02T11:33:14.264Z,19.80
2019-05-02T11:34:14.400Z,19.60
2019-05-02T11:35:14.542Z,19.60
2019-05-02T11:36:14.685Z,18.30
2019-05-02T11:37:14.796Z,19.00
2019-05-02T11:38:15.761Z,18.90
2019-05-02T11:39:21.496Z,21.30
2019-05-02T11:40:15.200Z,21.30
2019-05-02T11:41:15.332Z,20.70
2019-05-02T11:42:17.634Z,21.00
2019-05-02T11:43:15.606Z,20.00
2019-05-02T11:44:15.737Z,20.60
2019-05-02T11:45:15.873Z,22.90
2019-05-02T11:46:16.007Z,22.10
2019-05-02T11:47:17.287Z,22.90
2019-05-02T11:48:16.275Z,22.40
2019-05-02T11:49:16.405Z,21.80
2019-05-02T11:50:16.530Z,21.20
2019-05-02T11:51:16.686Z,21.40
2019-05-02T11:52:16.813Z,21.20
2019-05-02T11:53:28.498Z,22.00
2019-05-02T11:54:17.086Z,21.30
2019-05-02T11:55:19.012Z,22.80
2019-05-02T11:56:17.353Z,22.30
2019-05-02T11:57:21.276Z,21.90
2019-05-02T11:58:17.621Z,22.80
2019-05-02T11:59:20.748Z,23.20
2019-05-02T12:00:17.888Z,24.40
2019-05-02T12:01:20.233Z,23.00
2019-05-02T12:02:19.084Z,22.30
2019-05-02T12:03:18.292Z,21.00
2019-05-02T12:04:18.426Z,22.10
2019-05-02T12:05:18.556Z,20.20
2019-05-02T12:06:19.661Z,20.10
2019-05-02T12:07:18.834Z,20.40
2019-05-02T12:08:18.968Z,19.90
2019-05-02T12:09:19.118Z,22.70
2019-05-02T12:10:19.252Z,21.80
2019-05-02T12:11:19.372Z,19.20
2019-05-02T12:12:19.508Z,20.00
2019-05-02T12:13:19.641Z,18.90
2019-05-02T12:14:19.775Z,20.00
2019-05-02T12:15:21.672Z,21.00
2019-05-02T12:16:20.047Z,20.90
2019-05-02T12:17:21.760Z,19.60
2019-05-02T12:18:22.566Z,17.60
2019-05-02T12:19:22.777Z,18.80
2019-05-02T12:20:22.647Z,16.90
2019-05-02T12:21:22.690Z,18.80
2019-05-02T12:22:22.607Z,18.00
2019-05-02T12:23:22.626Z,18.80
2019-05-02T12:24:22.142Z,18.20
2019-05-02T12:25:22.371Z,19.10
2019-05-02T12:26:22.101Z,18.20
2019-05-02T12:27:22.077Z,19.00
2019-05-02T12:28:22.888Z,19.70
2019-05-02T12:29:21.911Z,20.90
2019-05-02T12:30:22.878Z,20.80
2019-05-02T12:31:22.199Z,20.50
2019-05-02T12:32:22.524Z,20.00
2019-05-02T12:33:22.431Z,21.70
2019-05-02T12:34:22.519Z,20.70
2019-05-02T12:35:22.655Z,19.60
2019-05-02T12:36:22.851Z,21.00
2019-05-02T12:37:22.961Z,19.80
2019-05-02T12:38:23.267Z,21.00
2019-05-02T12:39:23.234Z,22.30
2019-05-02T12:40:23.356Z,22.80
2019-05-02T12:41:25.146Z,20.80
2019-05-02T12:42:24.326Z,20.60
2019-05-02T12:43:23.798Z,23.20
2019-05-02T12:44:23.939Z,22.70
2019-05-02T12:45:24.093Z,22.20
2019-05-02T12:46:24.231Z,20.60
2019-05-02T12:47:24.367Z,22.00
2019-05-02T12:48:24.503Z,20.40
2019-05-02T12:49:27.814Z,22.10
2019-05-02T12:50:24.810Z,22.20
2019-05-02T12:51:24.911Z,22.50
2019-05-02T12:52:25.047Z,21.20
2019-05-02T12:53:25.184Z,20.80
2019-05-02T12:54:25.327Z,18.60